Time;durP1;ratioP1;P1;durP2;ratioP2;P2;SDS_P1;SDS_P2;PMS_P1;PMS_P2;Temp;Humidity;BMP_temperature;BMP_pressure;BME280_temperature;BME280_humidity;BME280_pressure;Samples;Min_cycle;Max_cycle;Signal;HPM_P1;HPM_P2
2023/11/30 00:00:09;;;;;;;13.02;9.65;;;6.10;52.00;;;;;;5016846;28;20103;-75
2023/11/30 00:02:35;;;;;;;11.63;8.90;;;6.00;51.80;;;;;;5029000;28;20052;-76
2023/11/30 00:05:03;;;;;;;14.32;9.90;;;6.00;51.90;;;;;;5027078;28;20025;-76
2023/11/30 00:07:29;;;;;;;14.02;9.82;;;6.00;51.90;;;;;;5043346;28;20037;-76
2023/11/30 00:09:55;;;;;;;12.80;10.52;;;5.90;51.80;;;;;;5032384;28;20041;-76
2023/11/30 00:12:21;;;;;;;14.43;10.85;;;5.90;51.80;;;;;;5017958;28;20026;-75
2023/11/30 00:14:47;;;;;;;15.80;11.40;;;5.90;51.90;;;;;;5010447;28;20399;-76
2023/11/30 00:17:14;;;;;;;17.50;11.48;;;5.90;52.00;;;;;;5011337;28;20029;-76
2023/11/30 00:19:40;;;;;;;18.77;12.65;;;5.80;51.80;;;;;;5026766;28;20556;-75
2023/11/30 00:22:06;;;;;;;14.32;11.77;;;5.80;51.90;;;;;;5015920;28;20034;-76
2023/11/30 00:24:31;;;;;;;18.13;12.60;;;5.70;51.80;;;;;;5032367;28;20099;-76
2023/11/30 00:26:57;;;;;;;15.02;11.77;;;5.70;51.90;;;;;;5012235;28;20091;-76
2023/11/30 00:29:23;;;;;;;18.85;12.73;;;5.70;51.90;;;;;;5013825;28;20029;-76
2023/11/30 00:31:49;;;;;;;19.83;13.00;;;5.60;51.80;;;;;;5013270;28;20017;-76
2023/11/30 00:34:16;;;;;;;15.95;12.88;;;5.60;51.80;;;;;;5015048;28;20033;-75
2023/11/30 00:36:41;;;;;;;17.08;12.80;;;5.60;51.90;;;;;;5011613;28;20217;-75
2023/11/30 00:39:08;;;;;;;17.80;13.15;;;5.60;52.00;;;;;;5011927;28;20440;-76
2023/11/30 00:41:34;;;;;;;24.90;13.85;;;5.60;52.10;;;;;;5015189;28;20042;-75
2023/11/30 00:44:00;;;;;;;17.45;12.95;;;5.50;51.90;;;;;;5016627;28;20036;-76
2023/11/30 00:46:26;;;;;;;17.73;14.27;;;5.50;51.90;;;;;;5017650;28;20041;-76
2023/11/30 00:48:52;;;;;;;22.33;14.10;;;5.50;52.10;;;;;;5033714;28;20033;-76
2023/11/30 00:51:18;;;;;;;21.70;14.98;;;5.50;52.10;;;;;;5024887;28;20501;-75
2023/11/30 00:53:44;;;;;;;15.73;13.15;;;5.40;51.90;;;;;;5027854;28;20050;-75
2023/11/30 00:56:11;;;;;;;19.55;13.82;;;5.40;52.00;;;;;;5025054;28;20161;-76
2023/11/30 00:58:38;;;;;;;18.08;14.07;;;5.40;52.10;;;;;;5016077;28;20498;-76
2023/11/30 01:01:04;;;;;;;15.27;12.75;;;5.40;52.10;;;;;;5023593;28;20077;-75
2023/11/30 01:03:30;;;;;;;18.25;13.88;;;5.30;52.00;;;;;;5014070;28;20676;-76
2023/11/30 01:05:56;;;;;;;15.73;12.30;;;5.30;52.00;;;;;;4993198;28;20026;-75
2023/11/30 01:08:22;;;;;;;16.27;12.77;;;5.30;52.10;;;;;;5035529;28;20033;-78
2023/11/30 01:10:48;;;;;;;16.98;13.25;;;5.30;52.10;;;;;;5013384;28;20040;-76
2023/11/30 01:13:14;;;;;;;17.85;13.07;;;5.20;52.00;;;;;;5011292;28;20067;-76
2023/11/30 01:15:40;;;;;;;20.48;13.10;;;5.10;51.80;;;;;;5012297;28;20033;-76
2023/11/30 01:18:06;;;;;;;16.60;13.63;;;5.20;52.10;;;;;;5017484;28;20382;-76
2023/11/30 01:20:33;;;;;;;16.48;13.15;;;5.20;52.10;;;;;;5029666;28;20030;-75
2023/11/30 01:22:59;;;;;;;15.35;12.20;;;5.10;52.00;;;;;;5015557;28;20539;-75
2023/11/30 01:25:25;;;;;;;15.07;12.25;;;5.10;52.00;;;;;;5019676;28;20037;-75
2023/11/30 01:27:52;;;;;;;20.45;12.63;;;5.10;52.10;;;;;;5017463;28;20029;-75
2023/11/30 01:30:19;;;;;;;16.23;12.57;;;5.00;51.90;;;;;;5009977;28;20034;-75
2023/11/30 01:32:45;;;;;;;15.73;12.27;;;5.00;51.90;;;;;;5019966;28;20103;-75
2023/11/30 01:35:11;;;;;;;16.48;12.90;;;5.00;52.00;;;;;;5028564;28;20566;-76
2023/11/30 01:37:40;;;;;;;15.70;11.80;;;5.00;52.00;;;;;;5033549;28;20112;-75
2023/11/30 01:40:10;;;;;;;15.07;11.48;;;5.00;52.00;;;;;;5011134;28;20052;-75
2023/11/30 01:42:36;;;;;;;15.43;12.05;;;4.90;51.90;;;;;;5012104;28;20037;-75
2023/11/30 01:45:04;;;;;;;20.98;12.57;;;4.90;52.00;;;;;;5012138;28;20037;-74
2023/11/30 01:47:31;;;;;;;15.77;11.18;;;4.90;52.00;;;;;;5017603;28;20033;-75
2023/11/30 01:50:01;;;;;;;14.45;11.20;;;4.90;52.00;;;;;;5017838;28;20037;-76
2023/11/30 01:52:30;;;;;;;15.95;12.35;;;4.90;52.10;;;;;;5021241;28;20493;-75
2023/11/30 01:54:59;;;;;;;14.57;11.45;;;4.80;51.90;;;;;;5012855;28;20052;-75
2023/11/30 01:57:26;;;;;;;13.40;11.07;;;4.80;51.90;;;;;;5025552;28;20517;-74
2023/11/30 01:59:52;;;;;;;15.95;11.82;;;4.80;51.90;;;;;;5023824;28;20423;-74
2023/11/30 02:02:18;;;;;;;13.43;11.43;;;4.80;51.90;;;;;;5012439;28;20045;-75
2023/11/30 02:04:51;;;;;;;14.27;11.48;;;4.80;51.90;;;;;;5022410;28;20033;-75
2023/11/30 02:07:17;;;;;;;14.83;12.13;;;4.70;51.80;;;;;;5019843;28;20030;-75
2023/11/30 02:09:43;;;;;;;13.65;10.82;;;4.70;51.80;;;;;;5013878;28;20310;-74
2023/11/30 02:12:12;;;;;;;14.93;10.55;;;4.70;51.80;;;;;;5030446;28;20037;-75
2023/11/30 02:14:38;;;;;;;13.25;10.60;;;4.60;51.70;;;;;;5010803;28;20355;-75
2023/11/30 02:17:04;;;;;;;15.55;10.43;;;4.60;51.70;;;;;;5010458;28;20385;-75
2023/11/30 02:19:30;;;;;;;15.18;11.13;;;4.60;51.70;;;;;;5012374;28;20073;-76
2023/11/30 02:21:56;;;;;;;13.93;10.15;;;4.60;51.90;;;;;;5013289;28;20538;-74
2023/11/30 02:24:22;;;;;;;15.05;11.18;;;4.60;51.80;;;;;;5014809;28;20124;-75
2023/11/30 02:26:48;;;;;;;12.50;10.75;;;4.50;51.60;;;;;;5024914;28;20037;-75
2023/11/30 02:29:15;;;;;;;12.07;10.02;;;4.50;51.60;;;;;;5012765;28;20038;-74
2023/11/30 02:31:42;;;;;;;14.98;11.38;;;4.50;51.70;;;;;;5011271;28;20132;-75
2023/11/30 02:34:08;;;;;;;14.73;11.25;;;4.50;51.70;;;;;;5014881;28;20048;-76
2023/11/30 02:36:34;;;;;;;15.60;11.32;;;4.50;51.70;;;;;;5010207;28;20709;-75
2023/11/30 02:39:00;;;;;;;14.68;11.60;;;4.50;51.70;;;;;;5011639;28;20116;-75
2023/11/30 02:41:26;;;;;;;14.10;11.30;;;4.50;51.70;;;;;;5011738;28;20639;-74
2023/11/30 02:43:52;;;;;;;12.10;10.52;;;4.40;51.50;;;;;;5018537;28;20033;-74
2023/11/30 02:46:20;;;;;;;14.82;11.38;;;4.40;51.50;;;;;;5028602;28;20448;-74
2023/11/30 02:48:46;;;;;;;14.27;10.77;;;4.40;51.50;;;;;;5019067;28;20113;-75
2023/11/30 02:51:12;;;;;;;14.80;11.15;;;4.40;51.60;;;;;;5013536;28;20025;-75
2023/11/30 02:53:38;;;;;;;17.45;11.85;;;4.40;51.50;;;;;;5029769;28;20037;-74
2023/11/30 02:56:05;;;;;;;14.40;10.90;;;4.40;51.50;;;;;;5019541;28;20041;-75
2023/11/30 02:58:31;;;;;;;13.85;10.93;;;4.40;51.60;;;;;;5018540;28;20037;-75
2023/11/30 03:00:57;;;;;;;17.80;11.55;;;4.40;51.60;;;;;;5023517;28;20469;-75
2023/11/30 03:03:23;;;;;;;13.95;11.60;;;4.30;51.40;;;;;;5021099;28;20033;-75
2023/11/30 03:05:49;;;;;;;16.52;12.38;;;4.30;51.40;;;;;;5024301;28;20025;-75
2023/11/30 03:08:15;;;;;;;12.35;10.63;;;4.30;51.40;;;;;;5021404;28;20079;-75
2023/11/30 03:10:41;;;;;;;14.50;11.25;;;4.30;51.50;;;;;;5022152;28;20036;-75
2023/11/30 03:13:07;;;;;;;14.73;10.90;;;4.30;51.50;;;;;;5022168;28;20038;-76
2023/11/30 03:15:42;;;;;;;13.73;11.35;;;4.30;51.50;;;;;;5018611;28;20036;-75
2023/11/30 03:18:08;;;;;;;14.77;11.43;;;4.30;51.50;;;;;;5036047;28;20030;-75
2023/11/30 03:20:35;;;;;;;14.35;10.75;;;4.20;51.30;;;;;;5034017;28;20069;-76
2023/11/30 03:23:03;;;;;;;14.13;11.35;;;4.20;51.40;;;;;;5019907;28;20037;-76
2023/11/30 03:25:29;;;;;;;13.55;10.88;;;4.20;51.40;;;;;;5015418;28;20037;-75
2023/11/30 03:27:55;;;;;;;17.50;11.73;;;4.20;51.40;;;;;;5018748;28;20342;-75
2023/11/30 03:30:21;;;;;;;13.57;11.20;;;4.10;51.40;;;;;;5015264;28;20640;-75
2023/11/30 03:32:47;;;;;;;16.63;11.32;;;4.10;51.30;;;;;;5015731;28;20064;-75
2023/11/30 03:35:13;;;;;;;15.07;11.60;;;4.10;51.30;;;;;;5032578;28;20038;-74
2023/11/30 03:37:40;;;;;;;13.35;10.75;;;4.10;51.40;;;;;;5035431;28;20285;-75
2023/11/30 03:40:07;;;;;;;13.73;11.38;;;4.10;51.40;;;;;;5037942;28;20029;-76
2023/11/30 03:42:33;;;;;;;13.77;10.75;;;4.10;51.30;;;;;;5036025;28;20038;-76
2023/11/30 03:44:59;;;;;;;14.55;10.77;;;4.10;51.40;;;;;;5018504;28;20038;-77
2023/11/30 03:47:25;;;;;;;16.27;11.10;;;4.00;51.20;;;;;;5035633;28;20059;-76
2023/11/30 03:49:51;;;;;;;13.55;11.43;;;4.00;51.20;;;;;;5018692;28;20022;-76
2023/11/30 03:52:17;;;;;;;15.23;12.43;;;4.00;51.20;;;;;;5010515;28;20625;-76
2023/11/30 03:54:42;;;;;;;16.58;11.95;;;4.00;51.20;;;;;;5029979;28;20040;-75
2023/11/30 03:57:11;;;;;;;14.52;12.23;;;3.90;51.00;;;;;;5038190;28;20021;-77
2023/11/30 03:59:39;;;;;;;16.20;11.52;;;3.90;51.10;;;;;;5033741;28;20041;-77
2023/11/30 04:02:05;;;;;;;17.05;11.65;;;3.90;51.10;;;;;;5022726;28;20033;-77
2023/11/30 04:04:31;;;;;;;13.45;10.75;;;3.90;51.10;;;;;;5017072;28;20026;-77
2023/11/30 04:06:57;;;;;;;13.95;11.30;;;3.90;51.10;;;;;;5026937;28;20546;-76
2023/11/30 04:09:23;;;;;;;17.88;11.55;;;3.80;51.00;;;;;;5019521;28;20060;-75
2023/11/30 04:11:49;;;;;;;18.92;12.27;;;3.80;51.00;;;;;;5020269;28;20063;-76
2023/11/30 04:14:15;;;;;;;16.48;11.20;;;3.80;51.00;;;;;;5035452;28;20116;-76
2023/11/30 04:16:41;;;;;;;16.70;12.27;;;3.80;51.10;;;;;;5032897;28;20843;-75
2023/11/30 04:19:10;;;;;;;14.95;11.15;;;3.80;51.10;;;;;;5031292;28;20073;-75
2023/11/30 04:21:37;;;;;;;12.63;11.20;;;3.70;50.90;;;;;;5031409;28;20380;-75
2023/11/30 04:24:04;;;;;;;17.02;11.70;;;3.70;51.00;;;;;;5032774;28;20025;-76
2023/11/30 04:26:30;;;;;;;16.70;11.10;;;3.70;51.00;;;;;;5034436;28;20091;-76
2023/11/30 04:28:56;;;;;;;11.95;10.63;;;3.70;51.00;;;;;;5021775;28;20033;-75
2023/11/30 04:31:23;;;;;;;17.55;11.95;;;3.60;50.90;;;;;;5022016;28;20115;-75
2023/11/30 04:33:48;;;;;;;14.38;11.82;;;3.60;50.80;;;;;;5020359;28;20081;-75
2023/11/30 04:36:15;;;;;;;13.43;11.63;;;3.60;50.90;;;;;;5030734;28;20021;-74
2023/11/30 04:38:41;;;;;;;14.05;11.65;;;3.60;51.00;;;;;;5051855;28;20041;-75
2023/11/30 04:41:07;;;;;;;14.50;11.25;;;3.60;50.90;;;;;;5031952;28;20053;-74
2023/11/30 04:43:37;;;;;;;15.63;11.80;;;3.60;50.90;;;;;;5034721;28;20040;-74
2023/11/30 04:46:03;;;;;;;15.23;11.90;;;3.50;50.80;;;;;;5026038;28;20146;-75
2023/11/30 04:48:29;;;;;;;12.65;11.00;;;3.50;50.80;;;;;;5023082;28;20485;-75
2023/11/30 04:50:55;;;;;;;13.88;11.30;;;3.50;50.80;;;;;;5021354;28;20128;-75
2023/11/30 04:53:21;;;;;;;13.77;11.48;;;3.50;50.80;;;;;;5034544;28;20109;-75
2023/11/30 04:55:47;;;;;;;13.90;11.48;;;3.40;50.70;;;;;;5027293;28;20135;-74
2023/11/30 04:58:14;;;;;;;14.25;11.73;;;3.40;50.70;;;;;;5025079;28;20373;-74
2023/11/30 05:00:41;;;;;;;16.00;11.60;;;3.40;50.70;;;;;;5013654;28;20041;-76
2023/11/30 05:03:07;;;;;;;16.67;12.38;;;3.40;50.70;;;;;;5018083;28;20037;-76
2023/11/30 05:05:33;;;;;;;16.80;11.95;;;3.40;50.80;;;;;;5019902;28;20033;-77
2023/11/30 05:07:59;;;;;;;17.42;11.65;;;3.40;50.80;;;;;;5023280;28;20042;-76
2023/11/30 05:10:25;;;;;;;13.52;10.90;;;3.30;50.60;;;;;;5024486;28;20237;-76
2023/11/30 05:12:51;;;;;;;17.88;12.02;;;3.30;50.60;;;;;;5022921;28;20040;-76
2023/11/30 05:15:17;;;;;;;14.65;11.10;;;3.30;50.70;;;;;;5022555;28;20036;-75
2023/11/30 05:17:43;;;;;;;15.77;11.23;;;3.30;50.70;;;;;;5020480;28;20489;-75
2023/11/30 05:20:09;;;;;;;16.35;11.45;;;3.30;50.70;;;;;;5020694;28;20394;-74
2023/11/30 05:22:35;;;;;;;15.73;11.70;;;3.20;50.60;;;;;;5022475;28;20393;-74
2023/11/30 05:25:02;;;;;;;14.07;12.25;;;3.20;50.60;;;;;;5018053;28;20075;-75
2023/11/30 05:27:28;;;;;;;17.48;11.80;;;3.20;50.60;;;;;;5017792;28;20032;-75
2023/11/30 05:29:54;;;;;;;14.90;11.35;;;3.20;50.60;;;;;;5022700;28;20033;-75
2023/11/30 05:32:21;;;;;;;15.45;12.13;;;3.10;50.50;;;;;;5015924;28;20025;-74
2023/11/30 05:34:47;;;;;;;16.92;12.90;;;3.10;50.50;;;;;;5021187;28;20504;-76
2023/11/30 05:37:13;;;;;;;14.57;12.25;;;3.10;50.60;;;;;;5030162;28;20025;-75
2023/11/30 05:39:39;;;;;;;15.75;12.20;;;3.10;50.60;;;;;;5019006;28;20041;-75
2023/11/30 05:42:05;;;;;;;17.75;12.02;;;3.00;50.40;;;;;;5025615;28;20069;-76
2023/11/30 05:44:31;;;;;;;15.32;12.45;;;3.10;50.60;;;;;;5027398;28;20076;-76
2023/11/30 05:46:57;;;;;;;18.02;12.45;;;3.10;50.60;;;;;;5029713;28;20364;-75
2023/11/30 05:49:23;;;;;;;15.05;12.13;;;3.00;50.40;;;;;;5030061;28;20057;-75
2023/11/30 05:51:49;;;;;;;14.23;11.35;;;3.00;50.50;;;;;;5017867;28;20103;-74
2023/11/30 05:54:15;;;;;;;16.92;12.63;;;3.00;50.50;;;;;;5024949;28;20334;-75
2023/11/30 05:56:41;;;;;;;17.38;12.50;;;3.00;50.50;;;;;;5019004;28;20033;-74
2023/11/30 05:59:07;;;;;;;16.33;11.88;;;2.90;50.30;;;;;;5018316;28;20041;-75
2023/11/30 06:01:33;;;;;;;15.85;12.57;;;3.00;50.60;;;;;;5049096;28;20030;-75
2023/11/30 06:03:59;;;;;;;19.70;13.60;;;3.00;50.60;;;;;;5019625;28;20060;-75
2023/11/30 06:06:25;;;;;;;17.63;12.77;;;2.90;50.40;;;;;;5011429;28;20064;-76
2023/11/30 06:08:51;;;;;;;16.10;12.98;;;2.90;50.40;;;;;;5015317;28;20037;-76
2023/11/30 06:11:17;;;;;;;18.20;13.90;;;2.90;50.50;;;;;;5015724;28;20207;-75
2023/11/30 06:13:43;;;;;;;15.60;12.38;;;2.90;50.50;;;;;;5017807;28;20045;-75
2023/11/30 06:16:09;;;;;;;19.30;13.50;;;2.90;50.50;;;;;;5018517;28;20037;-75
2023/11/30 06:18:35;;;;;;;17.50;13.77;;;2.90;50.60;;;;;;5020031;28;20033;-75
2023/11/30 06:21:01;;;;;;;16.05;12.48;;;2.80;50.50;;;;;;5013674;28;20048;-74
2023/11/30 06:23:27;;;;;;;16.50;12.50;;;2.80;50.50;;;;;;5053063;28;20029;-75
2023/11/30 06:25:56;;;;;;;21.50;14.13;;;2.80;50.50;;;;;;5020449;28;20787;-75
2023/11/30 06:28:22;;;;;;;18.33;13.57;;;2.80;50.60;;;;;;5055236;28;20417;-75
2023/11/30 06:30:48;;;;;;;16.40;12.15;;;2.80;50.50;;;;;;5017430;28;20248;-75
2023/11/30 06:33:14;;;;;;;17.52;13.35;;;2.80;50.60;;;;;;5018223;28;20328;-78
2023/11/30 06:35:40;;;;;;;18.75;13.52;;;2.70;50.50;;;;;;5017283;28;20056;-76
2023/11/30 06:38:06;;;;;;;16.83;11.82;;;2.70;50.50;;;;;;5018533;28;20029;-77
2023/11/30 06:40:32;;;;;;;18.08;13.82;;;2.70;50.50;;;;;;5016048;28;20242;-77
2023/11/30 06:42:58;;;;;;;16.63;12.90;;;2.70;50.70;;;;;;5025634;28;20026;-76
2023/11/30 06:45:24;;;;;;;16.83;12.45;;;2.70;50.80;;;;;;5030503;28;20026;-76
2023/11/30 06:47:50;;;;;;;65.50;20.80;;;2.70;50.80;;;;;;5025286;28;20036;-77
2023/11/30 06:50:16;;;;;;;43.47;17.63;;;2.70;50.80;;;;;;5021827;28;20440;-75
2023/11/30 06:52:42;;;;;;;43.65;17.25;;;2.70;51.60;;;;;;5013129;28;20091;-76
2023/11/30 06:55:08;;;;;;;24.67;15.07;;;2.70;51.10;;;;;;5022947;28;20034;-75
2023/11/30 06:57:35;;;;;;;32.88;16.13;;;2.80;51.40;;;;;;5021347;28;20083;-76
2023/11/30 07:00:01;;;;;;;29.23;15.18;;;2.80;51.30;;;;;;5020211;28;20037;-75
2023/11/30 07:02:27;;;;;;;20.77;13.13;;;2.80;51.40;;;;;;5017716;28;20573;-75
2023/11/30 07:04:53;;;;;;;24.05;14.27;;;2.80;51.40;;;;;;5017707;28;20108;-75
2023/11/30 07:07:19;;;;;;;23.45;14.63;;;2.80;51.50;;;;;;5023988;28;20106;-75
2023/11/30 07:09:45;;;;;;;25.20;14.50;;;2.80;51.60;;;;;;5020815;28;20423;-76
2023/11/30 07:12:11;;;;;;;21.60;13.60;;;2.80;51.60;;;;;;5021226;28;20810;-75
2023/11/30 07:14:37;;;;;;;18.55;13.40;;;2.80;51.60;;;;;;5018815;28;20247;-74
2023/11/30 07:17:03;;;;;;;20.73;13.85;;;2.80;51.70;;;;;;5021744;28;20320;-76
2023/11/30 07:19:30;;;;;;;19.38;14.50;;;2.80;51.70;;;;;;5018999;28;20041;-77
2023/11/30 07:21:56;;;;;;;18.73;14.02;;;2.80;51.70;;;;;;5015823;28;20440;-75
2023/11/30 07:24:22;;;;;;;18.33;13.25;;;2.80;51.70;;;;;;5017082;28;20018;-75
2023/11/30 07:26:48;;;;;;;25.50;14.65;;;2.80;51.80;;;;;;5018334;28;20206;-75
2023/11/30 07:29:15;;;;;;;16.77;13.82;;;2.90;52.00;;;;;;5028156;28;20421;-74
2023/11/30 07:31:43;;;;;;;17.70;13.57;;;2.80;51.90;;;;;;5022317;28;20029;-73
2023/11/30 07:34:09;;;;;;;17.70;13.25;;;2.90;52.00;;;;;;5024320;28;20049;-76
2023/11/30 07:36:38;;;;;;;17.17;13.27;;;2.80;51.90;;;;;;5017323;28;20029;-75
2023/11/30 07:39:04;;;;;;;17.63;13.73;;;2.80;51.90;;;;;;5024778;28;20059;-75
2023/11/30 07:41:31;;;;;;;18.35;13.43;;;2.80;51.90;;;;;;5020885;28;20119;-75
2023/11/30 07:43:58;;;;;;;18.30;14.07;;;2.80;51.90;;;;;;5018316;28;20044;-75
2023/11/30 07:46:24;;;;;;;19.38;14.00;;;2.80;51.90;;;;;;5021533;28;20044;-75
2023/11/30 07:48:52;;;;;;;15.35;12.57;;;2.80;51.90;;;;;;5022898;28;20310;-75
2023/11/30 07:51:19;;;;;;;18.90;12.55;;;2.90;52.10;;;;;;5033910;28;20428;-74
2023/11/30 07:53:45;;;;;;;17.88;13.73;;;2.80;51.90;;;;;;5015093;28;20374;-75
2023/11/30 07:56:11;;;;;;;16.77;12.30;;;2.80;51.90;;;;;;5017306;28;20069;-74
2023/11/30 07:58:39;;;;;;;15.70;12.13;;;2.80;51.90;;;;;;5021564;28;20507;-75
2023/11/30 08:01:05;;;;;;;17.42;13.63;;;2.80;52.00;;;;;;5012390;28;20064;-75
2023/11/30 08:03:31;;;;;;;18.27;14.23;;;2.80;51.90;;;;;;5021412;28;20033;-76
2023/11/30 08:05:58;;;;;;;16.75;13.23;;;2.80;52.00;;;;;;5008620;28;20508;-76
2023/11/30 08:08:24;;;;;;;17.10;12.82;;;2.80;51.90;;;;;;5034178;28;20048;-76
2023/11/30 08:10:50;;;;;;;12.40;11.10;;;2.80;51.90;;;;;;5026011;28;21330;-75
2023/11/30 08:13:16;;;;;;;17.67;12.43;;;2.80;52.00;;;;;;5033069;28;20307;-76
2023/11/30 08:15:42;;;;;;;14.80;11.35;;;2.80;52.00;;;;;;5033221;28;20489;-75
2023/11/30 08:18:10;;;;;;;16.92;12.98;;;2.80;52.00;;;;;;5005911;28;20568;-75
2023/11/30 08:20:36;;;;;;;15.35;13.05;;;2.70;51.80;;;;;;5019328;28;20405;-76
2023/11/30 08:23:02;;;;;;;18.30;12.52;;;2.80;52.00;;;;;;5018835;28;20090;-75
2023/11/30 08:25:29;;;;;;;15.93;12.35;;;2.70;51.80;;;;;;5035121;28;20457;-75
2023/11/30 08:27:55;;;;;;;18.10;13.32;;;2.70;51.80;;;;;;5020603;28;20025;-75
2023/11/30 08:30:22;;;;;;;17.23;12.38;;;2.70;51.80;;;;;;5026816;28;20029;-75
2023/11/30 08:32:48;;;;;;;13.88;12.00;;;2.70;51.80;;;;;;5018135;28;20036;-74
2023/11/30 08:35:15;;;;;;;16.75;12.82;;;2.70;51.80;;;;;;5021267;28;20095;-75
2023/11/30 08:37:41;;;;;;;16.60;12.20;;;2.70;51.80;;;;;;5002216;28;20037;-74
2023/11/30 08:40:07;;;;;;;18.48;12.77;;;2.70;51.80;;;;;;5022092;28;20044;-74
2023/11/30 08:42:37;;;;;;;15.18;12.38;;;2.70;51.80;;;;;;5015985;28;20111;-74
2023/11/30 08:45:06;;;;;;;13.98;12.48;;;2.70;51.90;;;;;;5033838;28;20354;-75
2023/11/30 08:47:32;;;;;;;14.60;12.43;;;2.70;51.90;;;;;;5027986;28;20078;-74
2023/11/30 08:49:58;;;;;;;16.70;13.05;;;2.70;51.90;;;;;;5033692;28;20025;-74
2023/11/30 08:52:35;;;;;;;16.80;14.68;;;2.70;51.90;;;;;;5019086;28;20037;-74
2023/11/30 08:55:01;;;;;;;15.48;12.35;;;2.60;51.60;;;;;;5023613;28;20270;-74
2023/11/30 08:57:28;;;;;;;19.60;14.18;;;2.70;51.90;;;;;;5019936;28;20025;-75
2023/11/30 08:59:55;;;;;;;21.05;14.00;;;2.70;51.80;;;;;;5022194;28;20045;-74
2023/11/30 09:02:24;;;;;;;17.30;14.80;;;2.70;51.90;;;;;;5023981;28;20389;-75
2023/11/30 09:04:54;;;;;;;20.67;15.32;;;2.70;51.80;;;;;;5021079;28;20036;-74
2023/11/30 09:07:21;;;;;;;21.13;15.60;;;2.70;51.80;;;;;;5019866;28;20373;-75
2023/11/30 09:09:47;;;;;;;17.20;13.13;;;2.70;51.80;;;;;;5025395;28;20028;-75
2023/11/30 09:12:14;;;;;;;23.50;15.27;;;2.70;51.90;;;;;;5023783;28;20385;-76
2023/11/30 09:14:40;;;;;;;19.70;13.82;;;2.80;52.20;;;;;;5022743;28;20160;-76
2023/11/30 09:17:06;;;;;;;21.23;14.93;;;2.90;52.70;;;;;;5027219;28;20044;-75
2023/11/30 09:19:32;;;;;;;21.08;16.38;;;3.00;53.00;;;;;;5021933;28;20033;-74
2023/11/30 09:21:58;;;;;;;24.23;16.80;;;3.10;53.30;;;;;;5026955;28;20099;-75
2023/11/30 09:24:25;;;;;;;21.67;17.35;;;3.30;53.80;;;;;;5021718;28;20196;-75
2023/11/30 09:26:51;;;;;;;21.63;17.17;;;3.30;53.90;;;;;;5025897;28;20951;-74
2023/11/30 09:29:17;;;;;;;23.75;17.75;;;3.50;54.30;;;;;;5019678;28;20037;-75
2023/11/30 09:31:46;;;;;;;24.38;19.42;;;3.60;54.60;;;;;;5024389;28;20048;-74
2023/11/30 09:34:12;;;;;;;21.23;16.65;;;3.70;54.80;;;;;;5019429;28;20081;-74
2023/11/30 09:36:39;;;;;;;22.33;17.30;;;3.80;55.00;;;;;;5045054;28;20461;-74
2023/11/30 09:39:08;;;;;;;25.27;16.83;;;4.00;56.00;;;;;;5018063;28;20038;-76
2023/11/30 09:41:38;;;;;;;22.27;18.38;;;4.10;55.60;;;;;;5021368;28;20053;-76
2023/11/30 09:44:09;;;;;;;22.42;17.60;;;4.10;55.60;;;;;;5018716;28;20132;-75
2023/11/30 09:46:38;;;;;;;21.98;17.02;;;4.30;56.00;;;;;;5021218;28;20021;-76
2023/11/30 09:49:06;;;;;;;22.52;16.17;;;4.40;56.10;;;;;;5019639;28;20378;-75
2023/11/30 09:51:33;;;;;;;23.05;17.38;;;4.50;56.30;;;;;;5016762;28;20520;-75
2023/11/30 09:54:00;;;;;;;24.58;17.10;;;4.60;56.40;;;;;;5024787;28;20103;-75
2023/11/30 09:56:27;;;;;;;21.80;16.10;;;4.70;56.60;;;;;;5022297;28;20167;-75
2023/11/30 09:58:54;;;;;;;20.83;16.55;;;4.80;56.80;;;;;;5029811;28;20091;-75
2023/11/30 10:01:22;;;;;;;22.30;15.80;;;4.90;57.00;;;;;;5024407;28;20528;-76
2023/11/30 10:03:48;;;;;;;21.20;15.65;;;5.00;57.10;;;;;;5031881;28;20433;-75
2023/11/30 10:06:15;;;;;;;21.83;15.75;;;5.10;57.20;;;;;;5017203;28;20025;-75
2023/11/30 10:08:42;;;;;;;20.48;13.27;;;5.20;57.40;;;;;;5026663;28;20037;-76
2023/11/30 10:11:12;;;;;;;19.55;14.13;;;5.30;57.50;;;;;;5028327;28;20558;-75
2023/11/30 10:13:39;;;;;;;16.67;13.80;;;5.40;58.00;;;;;;5023338;28;20030;-76
2023/11/30 10:16:10;;;;;;;20.38;14.07;;;5.60;58.40;;;;;;5037292;28;20041;-74
2023/11/30 10:18:36;;;;;;;15.68;12.23;;;6.00;59.10;;;;;;5036644;28;20439;-76
2023/11/30 10:21:07;;;;;;;14.98;11.88;;;6.30;59.20;;;;;;5022409;28;20413;-74
2023/11/30 10:23:34;;;;;;;14.25;12.20;;;6.60;59.30;;;;;;5025583;28;20049;-75
2023/11/30 10:26:02;;;;;;;14.43;12.23;;;7.00;59.40;;;;;;5025497;28;20057;-74
2023/11/30 10:28:28;;;;;;;15.05;10.80;;;7.30;59.40;;;;;;5024339;28;20036;-73
2023/11/30 10:30:59;;;;;;;13.30;11.43;;;7.60;59.30;;;;;;5028864;28;20034;-74
2023/11/30 10:33:26;;;;;;;11.75;9.65;;;7.90;59.30;;;;;;5031584;28;20495;-77
2023/11/30 10:35:53;;;;;;;16.20;12.05;;;8.10;59.20;;;;;;5031419;28;20048;-74
2023/11/30 10:38:28;;;;;;;16.08;12.55;;;8.40;59.20;;;;;;5020265;28;20029;-76
2023/11/30 10:40:58;;;;;;;15.93;11.65;;;8.50;58.70;;;;;;5037242;28;20544;-75
2023/11/30 10:43:25;;;;;;;14.65;12.35;;;8.60;58.30;;;;;;5031321;28;20033;-74
2023/11/30 10:45:57;;;;;;;15.07;13.00;;;8.60;58.10;;;;;;5026061;28;20147;-76
2023/11/30 10:48:24;;;;;;;15.48;13.10;;;8.40;57.60;;;;;;5039101;28;20041;-76
2023/11/30 10:50:53;;;;;;;15.25;12.35;;;8.30;57.60;;;;;;5021168;28;20587;-75
2023/11/30 10:53:44;;;;;;;17.33;12.90;;;8.20;57.50;;;;;;5023558;28;20099;-75
2023/11/30 10:56:15;;;;;;;14.18;11.60;;;8.00;57.30;;;;;;5032771;28;20037;-75
2023/11/30 10:58:43;;;;;;;17.67;12.75;;;7.90;57.40;;;;;;5012255;28;20033;-75
2023/11/30 11:01:11;;;;;;;13.57;11.73;;;7.70;57.10;;;;;;5023929;28;20041;-74
2023/11/30 11:03:45;;;;;;;15.40;12.38;;;7.60;57.10;;;;;;5020493;28;20029;-75
2023/11/30 11:06:12;;;;;;;15.52;12.95;;;7.50;57.00;;;;;;5013642;28;20037;-76
2023/11/30 11:08:38;;;;;;;15.68;11.93;;;7.40;56.90;;;;;;5024312;28;20140;-75
2023/11/30 11:11:07;;;;;;;13.75;12.00;;;7.30;56.70;;;;;;5019054;28;20042;-74
2023/11/30 11:13:34;;;;;;;14.57;12.02;;;7.30;56.70;;;;;;5016399;28;20022;-76
2023/11/30 11:16:03;;;;;;;15.13;13.00;;;7.20;56.50;;;;;;5022262;28;20087;-75
2023/11/30 11:18:31;;;;;;;13.68;11.40;;;7.20;56.50;;;;;;5017764;28;20563;-74
2023/11/30 11:21:01;;;;;;;13.70;12.20;;;7.10;56.40;;;;;;5023689;28;20441;-74
2023/11/30 11:23:34;;;;;;;14.73;11.80;;;7.10;56.30;;;;;;5024655;28;20037;-75
2023/11/30 11:26:05;;;;;;;16.90;11.27;;;7.00;56.20;;;;;;5027439;28;20523;-75
2023/11/30 11:28:35;;;;;;;13.85;10.70;;;7.00;56.20;;;;;;5019881;28;20034;-75
2023/11/30 11:31:01;;;;;;;14.00;11.45;;;7.00;56.10;;;;;;5010559;28;20456;-75
2023/11/30 11:33:30;;;;;;;12.13;10.23;;;7.00;56.10;;;;;;5025983;28;20099;-75
2023/11/30 11:35:57;;;;;;;12.98;11.23;;;6.90;55.80;;;;;;5025625;28;20041;-75
2023/11/30 11:38:24;;;;;;;13.43;10.77;;;6.90;55.70;;;;;;5025218;28;20041;-74
2023/11/30 11:40:50;;;;;;;10.65;8.88;;;6.90;55.60;;;;;;5016056;28;20107;-74
2023/11/30 11:43:16;;;;;;;13.57;10.57;;;6.90;55.50;;;;;;5019012;28;20404;-75
2023/11/30 11:45:42;;;;;;;11.95;9.65;;;6.90;55.50;;;;;;5025949;28;20040;-74
2023/11/30 11:48:10;;;;;;;12.52;10.38;;;6.90;55.50;;;;;;5019728;28;20033;-75
2023/11/30 11:50:36;;;;;;;12.27;9.60;;;6.90;55.30;;;;;;5022488;28;20188;-74
2023/11/30 11:53:06;;;;;;;11.02;9.20;;;6.90;55.30;;;;;;5034495;28;20872;-74
2023/11/30 11:55:32;;;;;;;10.70;9.57;;;6.90;55.20;;;;;;5021750;28;20133;-74
2023/11/30 11:57:58;;;;;;;11.50;9.55;;;6.90;55.20;;;;;;5021889;28;20029;-74
2023/11/30 12:00:25;;;;;;;11.43;9.38;;;6.90;55.10;;;;;;5027024;28;20045;-75
2023/11/30 12:03:02;;;;;;;11.68;9.70;;;6.90;55.10;;;;;;5021695;28;20037;-75
2023/11/30 12:05:29;;;;;;;13.32;9.23;;;6.90;55.00;;;;;;5017051;28;20270;-75
2023/11/30 12:07:56;;;;;;;14.40;9.57;;;6.90;55.00;;;;;;5016053;28;20030;-74
2023/11/30 12:10:26;;;;;;;15.25;9.73;;;6.90;54.90;;;;;;5018886;28;20040;-76
2023/11/30 12:12:53;;;;;;;9.35;8.23;;;6.90;54.90;;;;;;5030314;28;20057;-76
2023/11/30 12:15:19;;;;;;;9.77;8.32;;;6.90;54.80;;;;;;5018084;28;20171;-75
2023/11/30 12:17:45;;;;;;;10.05;8.40;;;6.90;54.80;;;;;;5021207;28;20393;-76
2023/11/30 12:20:11;;;;;;;10.05;8.45;;;6.90;54.70;;;;;;5017919;28;20340;-75
2023/11/30 12:22:37;;;;;;;9.20;8.05;;;6.90;54.70;;;;;;5036332;28;20041;-76
2023/11/30 12:25:03;;;;;;;10.00;8.70;;;6.90;54.60;;;;;;5024582;28;20052;-76
2023/11/30 12:27:29;;;;;;;8.50;7.60;;;7.00;54.70;;;;;;5054290;28;20120;-74
2023/11/30 12:29:55;;;;;;;9.88;8.10;;;6.90;54.50;;;;;;5016396;28;20041;-75
2023/11/30 12:32:21;;;;;;;10.75;8.02;;;7.00;54.60;;;;;;5019578;28;20025;-75
2023/11/30 12:34:47;;;;;;;11.52;8.15;;;7.00;54.50;;;;;;5045985;28;20049;-75